sensor_id;sensor_type;location;lat;lon;timestamp;P1;durP1;ratioP1;P2;durP2;ratioP2
69979;SDS011;57318;56.232;43.944;2022-07-03T00:01:31;11.37;;;6.37;;
69979;SDS011;57318;56.232;43.944;2022-07-03T00:03:57;10.90;;;6.57;;
69979;SDS011;57318;56.232;43.944;2022-07-03T00:06:23;9.50;;;6.73;;
69979;SDS011;57318;56.232;43.944;2022-07-03T00:08:50;7.35;;;5.50;;
69979;SDS011;57318;56.232;43.944;2022-07-03T00:11:15;10.33;;;6.27;;
69979;SDS011;57318;56.232;43.944;2022-07-03T00:13:41;7.97;;;6.20;;
69979;SDS011;57318;56.232;43.944;2022-07-03T00:16:07;11.07;;;7.03;;
69979;SDS011;57318;56.232;43.944;2022-07-03T00:18:32;11.27;;;6.90;;
69979;SDS011;57318;56.232;43.944;2022-07-03T00:21:03;11.10;;;7.03;;
69979;SDS011;57318;56.232;43.944;2022-07-03T00:23:30;9.50;;;6.88;;
69979;SDS011;57318;56.232;43.944;2022-07-03T00:26:05;13.18;;;7.15;;
69979;SDS011;57318;56.232;43.944;2022-07-03T00:28:31;12.05;;;7.68;;
69979;SDS011;57318;56.232;43.944;2022-07-03T00:30:57;12.73;;;8.05;;
69979;SDS011;57318;56.232;43.944;2022-07-03T00:33:23;11.40;;;7.57;;
69979;SDS011;57318;56.232;43.944;2022-07-03T00:35:53;13.38;;;7.97;;
69979;SDS011;57318;56.232;43.944;2022-07-03T00:38:20;13.63;;;7.45;;
69979;SDS011;57318;56.232;43.944;2022-07-03T00:40:47;12.48;;;8.15;;
69979;SDS011;57318;56.232;43.944;2022-07-03T00:43:13;14.43;;;8.17;;
69979;SDS011;57318;56.232;43.944;2022-07-03T00:45:41;14.63;;;7.75;;
69979;SDS011;57318;56.232;43.944;2022-07-03T00:48:12;13.25;;;7.90;;
69979;SDS011;57318;56.232;43.944;2022-07-03T00:50:39;11.70;;;7.78;;
69979;SDS011;57318;56.232;43.944;2022-07-03T00:53:11;14.40;;;8.27;;
69979;SDS011;57318;56.232;43.944;2022-07-03T00:55:38;13.25;;;8.15;;
69979;SDS011;57318;56.232;43.944;2022-07-03T00:58:07;12.70;;;7.75;;
69979;SDS011;57318;56.232;43.944;2022-07-03T01:00:33;19.03;;;8.47;;
69979;SDS011;57318;56.232;43.944;2022-07-03T01:03:05;13.00;;;8.10;;
69979;SDS011;57318;56.232;43.944;2022-07-03T01:05:32;14.75;;;8.10;;
69979;SDS011;57318;56.232;43.944;2022-07-03T01:19:51;11.02;;;7.97;;
69979;SDS011;57318;56.232;43.944;2022-07-03T01:22:45;14.17;;;8.40;;
69979;SDS011;57318;56.232;43.944;2022-07-03T01:30:18;18.10;;;10.82;;
69979;SDS011;57318;56.232;43.944;2022-07-03T01:32:47;18.75;;;10.90;;
69979;SDS011;57318;56.232;43.944;2022-07-03T01:35:33;18.13;;;10.40;;
69979;SDS011;57318;56.232;43.944;2022-07-03T01:38:04;15.70;;;9.57;;
69979;SDS011;57318;56.232;43.944;2022-07-03T01:40:32;16.73;;;10.73;;
69979;SDS011;57318;56.232;43.944;2022-07-03T01:43:01;18.15;;;10.95;;
69979;SDS011;57318;56.232;43.944;2022-07-03T01:45:29;17.52;;;10.60;;
69979;SDS011;57318;56.232;43.944;2022-07-03T01:47:57;17.58;;;10.43;;
69979;SDS011;57318;56.232;43.944;2022-07-03T01:50:24;13.55;;;9.68;;
69979;SDS011;57318;56.232;43.944;2022-07-03T01:52:51;15.27;;;9.40;;
69979;SDS011;57318;56.232;43.944;2022-07-03T01:55:18;15.95;;;10.25;;
69979;SDS011;57318;56.232;43.944;2022-07-03T01:57:46;14.93;;;10.43;;
69979;SDS011;57318;56.232;43.944;2022-07-03T02:00:18;21.08;;;10.32;;
69979;SDS011;57318;56.232;43.944;2022-07-03T02:08:08;16.15;;;10.30;;
69979;SDS011;57318;56.232;43.944;2022-07-03T02:10:40;19.25;;;10.85;;
69979;SDS011;57318;56.232;43.944;2022-07-03T02:13:24;19.50;;;11.57;;
69979;SDS011;57318;56.232;43.944;2022-07-03T02:16:16;17.05;;;11.27;;
69979;SDS011;57318;56.232;43.944;2022-07-03T02:18:45;15.77;;;10.85;;
69979;SDS011;57318;56.232;43.944;2022-07-03T02:21:25;15.30;;;11.43;;
69979;SDS011;57318;56.232;43.944;2022-07-03T02:26:46;17.70;;;11.43;;
69979;SDS011;57318;56.232;43.944;2022-07-03T02:29:33;16.73;;;11.57;;
69979;SDS011;57318;56.232;43.944;2022-07-03T02:32:06;18.55;;;12.13;;
69979;SDS011;57318;56.232;43.944;2022-07-03T02:34:36;18.02;;;12.27;;
69979;SDS011;57318;56.232;43.944;2022-07-03T02:37:12;19.42;;;12.13;;
69979;SDS011;57318;56.232;43.944;2022-07-03T02:39:43;19.23;;;12.32;;
69979;SDS011;57318;56.232;43.944;2022-07-03T02:42:58;18.75;;;12.30;;
69979;SDS011;57318;56.232;43.944;2022-07-03T02:45:12;14.50;;;10.52;;
69979;SDS011;57318;56.232;43.944;2022-07-03T02:50:27;17.13;;;10.15;;
69979;SDS011;57318;56.232;43.944;2022-07-03T02:52:59;15.75;;;9.95;;
69979;SDS011;57318;56.232;43.944;2022-07-03T03:00:52;18.23;;;10.45;;
69979;SDS011;57318;56.232;43.944;2022-07-03T03:03:32;17.08;;;10.43;;
69979;SDS011;57318;56.232;43.944;2022-07-03T03:11:05;16.13;;;10.10;;
69979;SDS011;57318;56.232;43.944;2022-07-03T03:13:39;17.13;;;10.77;;
69979;SDS011;57318;56.232;43.944;2022-07-03T03:16:13;16.83;;;10.43;;
69979;SDS011;57318;56.232;43.944;2022-07-03T03:21:09;16.27;;;10.30;;
69979;SDS011;57318;56.232;43.944;2022-07-03T03:23:46;15.63;;;9.65;;
69979;SDS011;57318;56.232;43.944;2022-07-03T03:26:22;15.45;;;10.18;;
69979;SDS011;57318;56.232;43.944;2022-07-03T03:28:50;19.05;;;10.57;;
69979;SDS011;57318;56.232;43.944;2022-07-03T03:31:17;16.70;;;11.25;;
69979;SDS011;57318;56.232;43.944;2022-07-03T03:33:48;15.65;;;11.13;;
69979;SDS011;57318;56.232;43.944;2022-07-03T03:36:15;16.80;;;11.30;;
69979;SDS011;57318;56.232;43.944;2022-07-03T03:38:43;15.25;;;10.80;;
69979;SDS011;57318;56.232;43.944;2022-07-03T03:41:10;20.08;;;11.73;;
69979;SDS011;57318;56.232;43.944;2022-07-03T03:43:36;17.40;;;11.73;;
69979;SDS011;57318;56.232;43.944;2022-07-03T03:48:31;17.92;;;11.18;;
69979;SDS011;57318;56.232;43.944;2022-07-03T03:50:59;20.40;;;11.30;;
69979;SDS011;57318;56.232;43.944;2022-07-03T03:53:26;16.67;;;11.45;;
69979;SDS011;57318;56.232;43.944;2022-07-03T03:55:53;17.20;;;10.55;;
69979;SDS011;57318;56.232;43.944;2022-07-03T03:58:23;14.75;;;9.77;;
69979;SDS011;57318;56.232;43.944;2022-07-03T04:00:49;16.97;;;10.83;;
69979;SDS011;57318;56.232;43.944;2022-07-03T04:03:15;15.70;;;10.37;;
69979;SDS011;57318;56.232;43.944;2022-07-03T04:05:40;15.67;;;11.00;;
69979;SDS011;57318;56.232;43.944;2022-07-03T04:08:07;16.45;;;10.50;;
69979;SDS011;57318;56.232;43.944;2022-07-03T04:10:33;16.92;;;10.48;;
69979;SDS011;57318;56.232;43.944;2022-07-03T04:12:59;16.27;;;10.57;;
69979;SDS011;57318;56.232;43.944;2022-07-03T04:15:25;18.77;;;10.57;;
69979;SDS011;57318;56.232;43.944;2022-07-03T04:17:51;15.40;;;10.67;;
69979;SDS011;57318;56.232;43.944;2022-07-03T04:20:17;16.10;;;10.70;;
69979;SDS011;57318;56.232;43.944;2022-07-03T04:22:43;19.38;;;10.70;;
69979;SDS011;57318;56.232;43.944;2022-07-03T04:25:09;17.97;;;11.27;;
69979;SDS011;57318;56.232;43.944;2022-07-03T04:27:34;14.17;;;10.47;;
69979;SDS011;57318;56.232;43.944;2022-07-03T04:30:00;16.43;;;10.67;;
69979;SDS011;57318;56.232;43.944;2022-07-03T04:32:26;17.20;;;11.25;;
69979;SDS011;57318;56.232;43.944;2022-07-03T04:34:51;18.57;;;11.30;;
69979;SDS011;57318;56.232;43.944;2022-07-03T04:37:17;20.77;;;10.57;;
69979;SDS011;57318;56.232;43.944;2022-07-03T04:39:43;16.47;;;10.40;;
69979;SDS011;57318;56.232;43.944;2022-07-03T04:42:08;15.17;;;9.93;;
69979;SDS011;57318;56.232;43.944;2022-07-03T04:44:34;17.50;;;11.53;;
69979;SDS011;57318;56.232;43.944;2022-07-03T04:46:59;15.73;;;10.57;;
69979;SDS011;57318;56.232;43.944;2022-07-03T04:49:25;18.35;;;10.68;;
69979;SDS011;57318;56.232;43.944;2022-07-03T04:51:51;14.20;;;10.40;;
69979;SDS011;57318;56.232;43.944;2022-07-03T04:54:18;17.00;;;10.23;;
69979;SDS011;57318;56.232;43.944;2022-07-03T04:56:44;14.23;;;10.13;;
69979;SDS011;57318;56.232;43.944;2022-07-03T04:59:09;13.57;;;10.00;;
69979;SDS011;57318;56.232;43.944;2022-07-03T05:01:35;18.50;;;8.95;;
69979;SDS011;57318;56.232;43.944;2022-07-03T05:04:01;13.35;;;9.43;;
69979;SDS011;57318;56.232;43.944;2022-07-03T05:06:27;16.27;;;9.23;;
69979;SDS011;57318;56.232;43.944;2022-07-03T05:08:53;13.70;;;9.47;;
69979;SDS011;57318;56.232;43.944;2022-07-03T05:11:18;12.15;;;8.60;;
69979;SDS011;57318;56.232;43.944;2022-07-03T05:13:44;16.27;;;9.25;;
69979;SDS011;57318;56.232;43.944;2022-07-03T05:16:10;15.77;;;8.97;;
69979;SDS011;57318;56.232;43.944;2022-07-03T05:18:35;12.23;;;8.97;;
69979;SDS011;57318;56.232;43.944;2022-07-03T05:21:01;12.47;;;8.67;;
69979;SDS011;57318;56.232;43.944;2022-07-03T05:23:27;11.18;;;8.20;;
69979;SDS011;57318;56.232;43.944;2022-07-03T05:25:53;11.40;;;8.50;;
69979;SDS011;57318;56.232;43.944;2022-07-03T05:28:20;13.85;;;9.18;;
69979;SDS011;57318;56.232;43.944;2022-07-03T05:30:46;13.45;;;8.40;;
69979;SDS011;57318;56.232;43.944;2022-07-03T05:33:11;14.45;;;9.20;;
69979;SDS011;57318;56.232;43.944;2022-07-03T05:35:37;13.35;;;8.73;;
69979;SDS011;57318;56.232;43.944;2022-07-03T05:38:03;10.00;;;7.47;;
69979;SDS011;57318;56.232;43.944;2022-07-03T05:40:28;10.47;;;7.37;;
69979;SDS011;57318;56.232;43.944;2022-07-03T05:42:54;10.93;;;7.97;;
69979;SDS011;57318;56.232;43.944;2022-07-03T05:45:20;13.80;;;8.65;;
69979;SDS011;57318;56.232;43.944;2022-07-03T05:47:46;11.35;;;8.38;;
69979;SDS011;57318;56.232;43.944;2022-07-03T05:50:11;9.07;;;8.07;;
69979;SDS011;57318;56.232;43.944;2022-07-03T05:52:37;12.83;;;8.10;;
69979;SDS011;57318;56.232;43.944;2022-07-03T05:55:03;12.15;;;8.05;;
69979;SDS011;57318;56.232;43.944;2022-07-03T05:57:29;11.35;;;8.45;;
69979;SDS011;57318;56.232;43.944;2022-07-03T05:59:55;16.30;;;8.55;;
69979;SDS011;57318;56.232;43.944;2022-07-03T06:02:21;10.80;;;7.47;;
69979;SDS011;57318;56.232;43.944;2022-07-03T06:04:46;10.70;;;8.17;;
69979;SDS011;57318;56.232;43.944;2022-07-03T06:07:12;14.43;;;8.27;;
69979;SDS011;57318;56.232;43.944;2022-07-03T06:09:38;9.57;;;8.57;;
69979;SDS011;57318;56.232;43.944;2022-07-03T06:12:04;11.97;;;8.37;;
69979;SDS011;57318;56.232;43.944;2022-07-03T06:14:30;13.90;;;8.02;;
69979;SDS011;57318;56.232;43.944;2022-07-03T06:16:55;10.67;;;7.50;;
69979;SDS011;57318;56.232;43.944;2022-07-03T06:19:21;9.17;;;7.40;;
69979;SDS011;57318;56.232;43.944;2022-07-03T06:21:47;9.00;;;7.90;;
69979;SDS011;57318;56.232;43.944;2022-07-03T06:24:12;8.63;;;7.33;;
69979;SDS011;57318;56.232;43.944;2022-07-03T06:26:38;11.55;;;7.43;;
69979;SDS011;57318;56.232;43.944;2022-07-03T06:29:04;11.88;;;8.07;;
69979;SDS011;57318;56.232;43.944;2022-07-03T06:31:30;8.95;;;6.82;;
69979;SDS011;57318;56.232;43.944;2022-07-03T06:33:57;8.18;;;7.20;;
69979;SDS011;57318;56.232;43.944;2022-07-03T06:36:22;7.68;;;6.82;;
69979;SDS011;57318;56.232;43.944;2022-07-03T06:38:48;10.68;;;7.82;;
69979;SDS011;57318;56.232;43.944;2022-07-03T06:41:14;8.40;;;6.82;;
69979;SDS011;57318;56.232;43.944;2022-07-03T06:43:39;7.45;;;6.63;;
69979;SDS011;57318;56.232;43.944;2022-07-03T06:46:05;8.60;;;6.70;;
69979;SDS011;57318;56.232;43.944;2022-07-03T06:48:31;8.13;;;6.47;;
69979;SDS011;57318;56.232;43.944;2022-07-03T06:50:56;7.85;;;6.63;;
69979;SDS011;57318;56.232;43.944;2022-07-03T06:53:22;8.05;;;6.25;;
69979;SDS011;57318;56.232;43.944;2022-07-03T06:55:48;8.43;;;6.80;;
69979;SDS011;57318;56.232;43.944;2022-07-03T06:58:13;8.43;;;7.43;;
69979;SDS011;57318;56.232;43.944;2022-07-03T07:03:05;9.30;;;7.43;;
69979;SDS011;57318;56.232;43.944;2022-07-03T07:05:31;10.95;;;7.38;;
69979;SDS011;57318;56.232;43.944;2022-07-03T07:07:57;8.30;;;7.40;;
69979;SDS011;57318;56.232;43.944;2022-07-03T07:10:22;8.75;;;7.88;;
69979;SDS011;57318;56.232;43.944;2022-07-03T07:12:48;9.15;;;8.15;;
69979;SDS011;57318;56.232;43.944;2022-07-03T07:15:14;8.68;;;7.85;;
69979;SDS011;57318;56.232;43.944;2022-07-03T07:20:06;10.05;;;7.95;;
69979;SDS011;57318;56.232;43.944;2022-07-03T07:22:32;8.63;;;7.82;;
69979;SDS011;57318;56.232;43.944;2022-07-03T07:24:58;9.40;;;7.63;;
69979;SDS011;57318;56.232;43.944;2022-07-03T07:27:23;8.32;;;7.53;;
69979;SDS011;57318;56.232;43.944;2022-07-03T07:29:49;10.63;;;7.57;;
69979;SDS011;57318;56.232;43.944;2022-07-03T07:34:40;12.13;;;7.78;;
69979;SDS011;57318;56.232;43.944;2022-07-03T07:39:31;8.52;;;7.63;;
69979;SDS011;57318;56.232;43.944;2022-07-03T07:44:22;9.50;;;7.75;;
69979;SDS011;57318;56.232;43.944;2022-07-03T07:49:14;8.27;;;7.50;;
69979;SDS011;57318;56.232;43.944;2022-07-03T07:51:40;8.73;;;7.60;;
69979;SDS011;57318;56.232;43.944;2022-07-03T07:54:06;8.48;;;7.60;;
69979;SDS011;57318;56.232;43.944;2022-07-03T07:56:31;8.00;;;7.30;;
69979;SDS011;57318;56.232;43.944;2022-07-03T07:58:57;8.73;;;7.28;;
69979;SDS011;57318;56.232;43.944;2022-07-03T08:01:22;8.30;;;7.47;;
69979;SDS011;57318;56.232;43.944;2022-07-03T08:04:06;8.60;;;7.70;;
69979;SDS011;57318;56.232;43.944;2022-07-03T08:06:51;9.65;;;7.07;;
69979;SDS011;57318;56.232;43.944;2022-07-03T08:11:42;9.18;;;5.78;;
69979;SDS011;57318;56.232;43.944;2022-07-03T08:14:08;12.30;;;6.88;;
69979;SDS011;57318;56.232;43.944;2022-07-03T08:16:35;7.45;;;6.18;;
69979;SDS011;57318;56.232;43.944;2022-07-03T08:19:03;9.80;;;5.93;;
69979;SDS011;57318;56.232;43.944;2022-07-03T08:21:29;8.73;;;6.55;;
69979;SDS011;57318;56.232;43.944;2022-07-03T08:23:54;8.27;;;6.38;;
69979;SDS011;57318;56.232;43.944;2022-07-03T08:28:45;8.60;;;6.10;;
69979;SDS011;57318;56.232;43.944;2022-07-03T08:31:11;8.05;;;5.72;;
69979;SDS011;57318;56.232;43.944;2022-07-03T08:33:37;7.07;;;5.80;;
69979;SDS011;57318;56.232;43.944;2022-07-03T08:36:03;6.28;;;5.68;;
69979;SDS011;57318;56.232;43.944;2022-07-03T08:38:32;7.50;;;6.00;;
69979;SDS011;57318;56.232;43.944;2022-07-03T08:40:59;5.70;;;5.20;;
69979;SDS011;57318;56.232;43.944;2022-07-03T08:43:26;6.40;;;5.80;;
69979;SDS011;57318;56.232;43.944;2022-07-03T08:45:55;6.68;;;5.60;;
69979;SDS011;57318;56.232;43.944;2022-07-03T08:48:23;6.45;;;5.85;;
69979;SDS011;57318;56.232;43.944;2022-07-03T08:50:50;10.65;;;5.88;;
69979;SDS011;57318;56.232;43.944;2022-07-03T08:53:17;7.07;;;5.82;;
69979;SDS011;57318;56.232;43.944;2022-07-03T08:55:44;9.00;;;5.95;;
69979;SDS011;57318;56.232;43.944;2022-07-03T08:58:11;6.45;;;5.50;;
69979;SDS011;57318;56.232;43.944;2022-07-03T09:00:39;7.88;;;5.57;;
69979;SDS011;57318;56.232;43.944;2022-07-03T09:03:09;6.30;;;5.70;;
69979;SDS011;57318;56.232;43.944;2022-07-03T09:05:36;6.07;;;5.57;;
69979;SDS011;57318;56.232;43.944;2022-07-03T09:08:05;6.30;;;5.47;;
69979;SDS011;57318;56.232;43.944;2022-07-03T09:10:31;6.88;;;5.50;;
69979;SDS011;57318;56.232;43.944;2022-07-03T09:12:57;5.53;;;4.85;;
69979;SDS011;57318;56.232;43.944;2022-07-03T09:15:24;5.93;;;4.80;;
69979;SDS011;57318;56.232;43.944;2022-07-03T09:17:59;6.20;;;4.90;;
69979;SDS011;57318;56.232;43.944;2022-07-03T09:20:34;5.68;;;5.18;;
69979;SDS011;57318;56.232;43.944;2022-07-03T09:25:56;7.90;;;5.47;;
69979;SDS011;57318;56.232;43.944;2022-07-03T09:30:59;5.93;;;5.43;;
69979;SDS011;57318;56.232;43.944;2022-07-03T09:33:26;7.40;;;5.10;;
69979;SDS011;57318;56.232;43.944;2022-07-03T09:35:53;5.38;;;4.82;;
69979;SDS011;57318;56.232;43.944;2022-07-03T09:38:20;5.47;;;4.80;;
69979;SDS011;57318;56.232;43.944;2022-07-03T09:40:52;5.57;;;4.97;;
69979;SDS011;57318;56.232;43.944;2022-07-03T09:43:24;5.43;;;4.68;;
69979;SDS011;57318;56.232;43.944;2022-07-03T09:45:52;4.88;;;4.47;;
69979;SDS011;57318;56.232;43.944;2022-07-03T09:48:39;5.05;;;4.63;;
69979;SDS011;57318;56.232;43.944;2022-07-03T09:53:53;4.82;;;4.32;;
69979;SDS011;57318;56.232;43.944;2022-07-03T09:56:26;4.78;;;4.28;;
69979;SDS011;57318;56.232;43.944;2022-07-03T09:59:00;5.13;;;4.50;;
69979;SDS011;57318;56.232;43.944;2022-07-03T10:01:29;5.40;;;4.90;;
69979;SDS011;57318;56.232;43.944;2022-07-03T10:03:56;4.53;;;4.13;;
69979;SDS011;57318;56.232;43.944;2022-07-03T10:06:49;4.97;;;4.22;;
69979;SDS011;57318;56.232;43.944;2022-07-03T10:09:15;4.80;;;4.35;;
69979;SDS011;57318;56.232;43.944;2022-07-03T10:11:42;4.60;;;4.20;;
69979;SDS011;57318;56.232;43.944;2022-07-03T10:14:11;5.25;;;4.85;;
69979;SDS011;57318;56.232;43.944;2022-07-03T10:16:39;4.68;;;3.83;;
69979;SDS011;57318;56.232;43.944;2022-07-03T10:19:05;3.83;;;3.53;;
69979;SDS011;57318;56.232;43.944;2022-07-03T10:21:35;4.22;;;3.92;;
69979;SDS011;57318;56.232;43.944;2022-07-03T10:24:01;3.80;;;3.50;;
69979;SDS011;57318;56.232;43.944;2022-07-03T10:26:28;4.50;;;3.78;;
69979;SDS011;57318;56.232;43.944;2022-07-03T10:28:54;4.63;;;4.10;;
69979;SDS011;57318;56.232;43.944;2022-07-03T10:31:22;5.93;;;4.07;;
69979;SDS011;57318;56.232;43.944;2022-07-03T10:33:49;4.45;;;3.83;;
69979;SDS011;57318;56.232;43.944;2022-07-03T10:36:17;6.20;;;3.90;;
69979;SDS011;57318;56.232;43.944;2022-07-03T10:38:46;3.60;;;3.30;;
69979;SDS011;57318;56.232;43.944;2022-07-03T10:41:28;3.15;;;2.95;;
69979;SDS011;57318;56.232;43.944;2022-07-03T10:44:17;3.00;;;2.80;;
69979;SDS011;57318;56.232;43.944;2022-07-03T10:47:01;3.00;;;2.80;;
69979;SDS011;57318;56.232;43.944;2022-07-03T10:49:27;3.63;;;3.30;;
69979;SDS011;57318;56.232;43.944;2022-07-03T10:51:54;3.00;;;2.72;;
69979;SDS011;57318;56.232;43.944;2022-07-03T11:02:22;3.50;;;3.30;;
69979;SDS011;57318;56.232;43.944;2022-07-03T11:15:40;4.15;;;3.85;;
69979;SDS011;57318;56.232;43.944;2022-07-03T11:23:33;4.65;;;3.55;;
69979;SDS011;57318;56.232;43.944;2022-07-03T11:33:40;4.30;;;3.25;;
69979;SDS011;57318;56.232;43.944;2022-07-03T11:38:48;5.80;;;3.00;;
69979;SDS011;57318;56.232;43.944;2022-07-03T11:44:08;3.05;;;2.85;;
69979;SDS011;57318;56.232;43.944;2022-07-03T11:46:35;3.00;;;2.80;;
69979;SDS011;57318;56.232;43.944;2022-07-03T11:49:06;3.30;;;3.00;;
69979;SDS011;57318;56.232;43.944;2022-07-03T11:51:33;3.50;;;3.20;;
69979;SDS011;57318;56.232;43.944;2022-07-03T11:54:00;3.38;;;3.17;;
69979;SDS011;57318;56.232;43.944;2022-07-03T11:56:26;3.53;;;3.20;;
69979;SDS011;57318;56.232;43.944;2022-07-03T11:58:56;2.95;;;2.75;;
69979;SDS011;57318;56.232;43.944;2022-07-03T12:03:49;3.35;;;3.05;;
69979;SDS011;57318;56.232;43.944;2022-07-03T12:06:15;2.85;;;2.63;;
69979;SDS011;57318;56.232;43.944;2022-07-03T12:08:42;4.00;;;3.00;;
69979;SDS011;57318;56.232;43.944;2022-07-03T12:11:12;6.45;;;2.85;;
69979;SDS011;57318;56.232;43.944;2022-07-03T12:13:39;3.20;;;3.00;;
69979;SDS011;57318;56.232;43.944;2022-07-03T12:16:09;3.30;;;3.00;;
69979;SDS011;57318;56.232;43.944;2022-07-03T12:18:43;4.80;;;3.28;;
69979;SDS011;57318;56.232;43.944;2022-07-03T12:21:14;3.85;;;3.55;;
69979;SDS011;57318;56.232;43.944;2022-07-03T12:23:42;3.95;;;3.10;;
69979;SDS011;57318;56.232;43.944;2022-07-03T12:26:13;3.70;;;3.40;;
69979;SDS011;57318;56.232;43.944;2022-07-03T12:28:39;3.85;;;3.45;;
69979;SDS011;57318;56.232;43.944;2022-07-03T12:31:06;4.03;;;3.47;;
69979;SDS011;57318;56.232;43.944;2022-07-03T12:33:32;3.50;;;3.20;;
69979;SDS011;57318;56.232;43.944;2022-07-03T12:36:04;3.63;;;3.33;;
69979;SDS011;57318;56.232;43.944;2022-07-03T12:38:31;3.40;;;3.10;;
69979;SDS011;57318;56.232;43.944;2022-07-03T12:41:03;3.47;;;2.80;;
69979;SDS011;57318;56.232;43.944;2022-07-03T12:43:37;3.00;;;2.80;;
69979;SDS011;57318;56.232;43.944;2022-07-03T12:46:23;3.00;;;2.80;;
69979;SDS011;57318;56.232;43.944;2022-07-03T12:48:54;3.28;;;3.08;;
69979;SDS011;57318;56.232;43.944;2022-07-03T12:54:05;2.92;;;2.72;;
69979;SDS011;57318;56.232;43.944;2022-07-03T12:56:32;3.42;;;3.13;;
69979;SDS011;57318;56.232;43.944;2022-07-03T12:58:58;4.03;;;3.25;;
69979;SDS011;57318;56.232;43.944;2022-07-03T13:01:42;5.95;;;3.45;;
69979;SDS011;57318;56.232;43.944;2022-07-03T13:04:09;3.00;;;2.80;;
69979;SDS011;57318;56.232;43.944;2022-07-03T13:06:42;3.35;;;3.03;;
69979;SDS011;57318;56.232;43.944;2022-07-03T13:09:10;2.90;;;2.70;;
69979;SDS011;57318;56.232;43.944;2022-07-03T13:11:37;2.88;;;2.60;;
69979;SDS011;57318;56.232;43.944;2022-07-03T13:14:06;2.88;;;2.67;;
69979;SDS011;57318;56.232;43.944;2022-07-03T13:16:52;6.35;;;2.85;;
69979;SDS011;57318;56.232;43.944;2022-07-03T13:19:20;3.10;;;2.90;;
69979;SDS011;57318;56.232;43.944;2022-07-03T13:21:48;3.95;;;3.03;;
69979;SDS011;57318;56.232;43.944;2022-07-03T13:24:17;3.28;;;2.95;;
69979;SDS011;57318;56.232;43.944;2022-07-03T13:26:44;3.20;;;2.85;;
69979;SDS011;57318;56.232;43.944;2022-07-03T13:29:10;2.75;;;2.55;;
69979;SDS011;57318;56.232;43.944;2022-07-03T13:31:36;4.90;;;2.83;;
69979;SDS011;57318;56.232;43.944;2022-07-03T13:34:01;3.03;;;2.80;;
69979;SDS011;57318;56.232;43.944;2022-07-03T13:36:28;3.28;;;2.70;;
69979;SDS011;57318;56.232;43.944;2022-07-03T13:38:55;3.88;;;2.97;;
69979;SDS011;57318;56.232;43.944;2022-07-03T13:41:21;3.25;;;2.75;;
69979;SDS011;57318;56.232;43.944;2022-07-03T13:43:48;3.10;;;2.90;;
69979;SDS011;57318;56.232;43.944;2022-07-03T13:46:15;3.13;;;2.83;;
69979;SDS011;57318;56.232;43.944;2022-07-03T13:48:41;3.58;;;3.30;;
69979;SDS011;57318;56.232;43.944;2022-07-03T13:51:07;2.70;;;2.50;;
69979;SDS011;57318;56.232;43.944;2022-07-03T13:53:33;3.65;;;2.63;;
69979;SDS011;57318;56.232;43.944;2022-07-03T13:55:59;2.67;;;2.47;;
69979;SDS011;57318;56.232;43.944;2022-07-03T13:58:25;2.63;;;2.40;;
69979;SDS011;57318;56.232;43.944;2022-07-03T14:00:51;3.08;;;2.58;;
69979;SDS011;57318;56.232;43.944;2022-07-03T14:03:18;4.82;;;2.70;;
69979;SDS011;57318;56.232;43.944;2022-07-03T14:05:44;2.70;;;2.50;;
69979;SDS011;57318;56.232;43.944;2022-07-03T14:08:10;2.55;;;2.45;;
69979;SDS011;57318;56.232;43.944;2022-07-03T14:10:37;2.50;;;2.30;;
69979;SDS011;57318;56.232;43.944;2022-07-03T14:13:03;3.03;;;2.40;;
69979;SDS011;57318;56.232;43.944;2022-07-03T14:15:30;2.38;;;2.22;;
69979;SDS011;57318;56.232;43.944;2022-07-03T14:17:55;2.90;;;2.50;;
69979;SDS011;57318;56.232;43.944;2022-07-03T14:20:25;2.60;;;2.40;;
69979;SDS011;57318;56.232;43.944;2022-07-03T14:22:51;3.20;;;2.55;;
69979;SDS011;57318;56.232;43.944;2022-07-03T14:25:17;2.55;;;2.38;;
69979;SDS011;57318;56.232;43.944;2022-07-03T14:27:43;3.88;;;3.13;;
69979;SDS011;57318;56.232;43.944;2022-07-03T14:30:44;2.53;;;2.35;;
69979;SDS011;57318;56.232;43.944;2022-07-03T14:33:28;2.85;;;2.40;;
69979;SDS011;57318;56.232;43.944;2022-07-03T14:35:53;2.63;;;2.40;;
69979;SDS011;57318;56.232;43.944;2022-07-03T14:38:19;2.10;;;2.00;;
69979;SDS011;57318;56.232;43.944;2022-07-03T14:40:46;2.40;;;2.20;;
69979;SDS011;57318;56.232;43.944;2022-07-03T14:43:11;2.60;;;1.90;;
69979;SDS011;57318;56.232;43.944;2022-07-03T14:45:37;2.33;;;2.10;;
69979;SDS011;57318;56.232;43.944;2022-07-03T14:50:28;2.33;;;2.13;;
69979;SDS011;57318;56.232;43.944;2022-07-03T14:55:19;2.75;;;2.55;;
69979;SDS011;57318;56.232;43.944;2022-07-03T15:00:14;3.42;;;2.47;;
69979;SDS011;57318;56.232;43.944;2022-07-03T15:05:32;4.00;;;2.28;;
69979;SDS011;57318;56.232;43.944;2022-07-03T15:08:21;3.63;;;2.40;;
69979;SDS011;57318;56.232;43.944;2022-07-03T15:10:54;2.17;;;2.00;;
69979;SDS011;57318;56.232;43.944;2022-07-03T15:13:21;2.67;;;2.47;;
69979;SDS011;57318;56.232;43.944;2022-07-03T15:15:49;2.80;;;2.60;;
69979;SDS011;57318;56.232;43.944;2022-07-03T15:18:17;2.85;;;2.55;;
69979;SDS011;57318;56.232;43.944;2022-07-03T15:20:46;2.50;;;2.33;;
69979;SDS011;57318;56.232;43.944;2022-07-03T15:23:12;2.50;;;2.30;;
69979;SDS011;57318;56.232;43.944;2022-07-03T15:25:38;2.55;;;2.35;;
69979;SDS011;57318;56.232;43.944;2022-07-03T15:28:08;2.75;;;2.55;;
69979;SDS011;57318;56.232;43.944;2022-07-03T15:30:35;6.18;;;2.30;;
69979;SDS011;57318;56.232;43.944;2022-07-03T15:33:01;2.75;;;2.55;;
69979;SDS011;57318;56.232;43.944;2022-07-03T15:35:27;2.85;;;2.65;;
69979;SDS011;57318;56.232;43.944;2022-07-03T15:48:52;2.45;;;2.25;;
69979;SDS011;57318;56.232;43.944;2022-07-03T15:59:45;3.75;;;2.40;;
69979;SDS011;57318;56.232;43.944;2022-07-03T16:02:15;3.50;;;2.45;;
69979;SDS011;57318;56.232;43.944;2022-07-03T16:07:35;4.72;;;2.72;;
69979;SDS011;57318;56.232;43.944;2022-07-03T16:10:04;4.88;;;2.53;;
69979;SDS011;57318;56.232;43.944;2022-07-03T16:12:34;2.58;;;2.38;;
69979;SDS011;57318;56.232;43.944;2022-07-03T16:15:01;4.68;;;2.60;;
69979;SDS011;57318;56.232;43.944;2022-07-03T16:17:28;2.78;;;2.58;;
69979;SDS011;57318;56.232;43.944;2022-07-03T16:19:58;5.35;;;2.80;;
69979;SDS011;57318;56.232;43.944;2022-07-03T16:22:26;2.97;;;2.75;;
69979;SDS011;57318;56.232;43.944;2022-07-03T16:24:55;3.22;;;2.72;;
69979;SDS011;57318;56.232;43.944;2022-07-03T16:27:23;3.58;;;2.60;;
69979;SDS011;57318;56.232;43.944;2022-07-03T16:29:50;2.75;;;2.50;;
69979;SDS011;57318;56.232;43.944;2022-07-03T16:32:18;2.70;;;2.38;;
69979;SDS011;57318;56.232;43.944;2022-07-03T16:37:34;3.28;;;2.97;;
69979;SDS011;57318;56.232;43.944;2022-07-03T16:40:05;2.65;;;2.40;;
69979;SDS011;57318;56.232;43.944;2022-07-03T16:42:32;6.22;;;2.75;;
69979;SDS011;57318;56.232;43.944;2022-07-03T16:45:02;2.38;;;2.17;;
69979;SDS011;57318;56.232;43.944;2022-07-03T16:47:30;2.78;;;2.47;;
69979;SDS011;57318;56.232;43.944;2022-07-03T16:50:08;3.13;;;2.72;;
69979;SDS011;57318;56.232;43.944;2022-07-03T16:52:36;2.97;;;2.53;;
69979;SDS011;57318;56.232;43.944;2022-07-03T16:55:05;4.00;;;2.50;;
69979;SDS011;57318;56.232;43.944;2022-07-03T16:57:33;4.07;;;2.70;;
69979;SDS011;57318;56.232;43.944;2022-07-03T17:00:00;5.43;;;3.20;;
69979;SDS011;57318;56.232;43.944;2022-07-03T17:02:26;4.93;;;2.88;;